Time;durP1;ratioP1;P1;durP2;ratioP2;P2;SDS_P1;SDS_P2;PMS_P1;PMS_P2;Temp;Humidity;BMP_temperature;BMP_pressure;BME280_temperature;BME280_humidity;BME280_pressure;Samples;Min_cycle;Max_cycle;Signal;HPM_P1;HPM_P2
2022/10/11 00:00:31;;;;;;;8.50;8.30;;;13.20;99.90;;;;;;5120578;28;20221;-78
2022/10/11 00:03:00;;;;;;;8.43;8.23;;;13.10;99.90;;;;;;5120370;28;20297;-79
2022/10/11 00:05:30;;;;;;;8.30;8.10;;;13.20;99.90;;;;;;5120106;28;20292;-78
2022/10/11 00:08:04;;;;;;;9.00;8.70;;;13.10;99.90;;;;;;5120557;28;20229;-79
2022/10/11 00:10:38;;;;;;;8.90;8.60;;;13.10;99.90;;;;;;5120306;28;20313;-78
2022/10/11 00:13:06;;;;;;;8.83;8.60;;;13.00;99.90;;;;;;5120488;28;20235;-78
2022/10/11 00:15:35;;;;;;;9.30;9.00;;;13.10;99.90;;;;;;5119746;28;20228;-78
2022/10/11 00:18:06;;;;;;;8.90;8.60;;;13.10;99.90;;;;;;5120202;28;20243;-79
2022/10/11 00:20:34;;;;;;;9.30;9.00;;;13.20;99.90;;;;;;5120444;28;20243;-80
2022/10/11 00:23:07;;;;;;;9.00;8.70;;;13.20;99.90;;;;;;5129377;28;20239;-78
2022/10/11 00:25:35;;;;;;;9.00;8.70;;;13.20;99.90;;;;;;5135974;28;20292;-77
2022/10/11 00:28:03;;;;;;;9.20;8.90;;;13.30;99.90;;;;;;5136492;28;20308;-79
2022/10/11 00:30:32;;;;;;;9.20;8.90;;;13.20;99.90;;;;;;5123679;28;20229;-79
2022/10/11 00:33:02;;;;;;;8.90;8.60;;;13.20;99.90;;;;;;5121173;28;20229;-78
2022/10/11 00:35:31;;;;;;;9.10;8.80;;;13.20;99.90;;;;;;5120977;28;20224;-79
2022/10/11 00:38:08;;;;;;;9.10;8.80;;;13.30;99.90;;;;;;5120220;28;20280;-78
2022/10/11 00:40:41;;;;;;;9.10;8.80;;;13.30;99.90;;;;;;5119644;28;20313;-78
2022/10/11 00:43:16;;;;;;;8.93;8.63;;;13.30;99.90;;;;;;5120280;28;20233;-79
2022/10/11 00:46:05;;;;;;;9.20;8.90;;;13.30;99.90;;;;;;5119762;28;20223;-79
2022/10/11 00:48:42;;;;;;;9.13;8.83;;;13.30;99.90;;;;;;5119685;28;20256;-79
2022/10/11 00:51:21;;;;;;;9.07;8.77;;;13.30;99.90;;;;;;5119883;28;20234;-79
2022/10/11 00:53:50;;;;;;;9.17;8.87;;;13.30;99.90;;;;;;5120359;28;20237;-79
2022/10/11 00:56:39;;;;;;;8.70;8.50;;;13.30;99.90;;;;;;5119895;28;20225;-79
2022/10/11 00:59:11;;;;;;;9.13;8.83;;;13.30;99.90;;;;;;5119798;28;20243;-79
2022/10/11 01:01:38;;;;;;;9.03;8.73;;;13.20;99.90;;;;;;5119881;28;20231;-78
2022/10/11 01:04:07;;;;;;;9.00;8.70;;;13.20;99.90;;;;;;5119462;28;20225;-78
2022/10/11 01:06:37;;;;;;;9.10;8.80;;;13.20;99.90;;;;;;5118963;28;20251;-79
2022/10/11 01:09:06;;;;;;;9.20;8.90;;;13.20;99.90;;;;;;5118746;28;20255;-78
2022/10/11 01:11:46;;;;;;;8.90;8.63;;;13.10;99.90;;;;;;5119102;28;20324;-79
2022/10/11 01:14:50;;;;;;;8.90;8.60;;;13.10;99.90;;;;;;5119065;28;20243;-79
2022/10/11 01:17:27;;;;;;;8.90;8.60;;;13.10;99.90;;;;;;5094563;28;20239;-79
2022/10/11 01:20:32;;;;;;;8.60;8.40;;;13.10;99.90;;;;;;5118904;28;20241;-78
2022/10/11 01:23:47;;;;;;;8.70;8.50;;;13.00;99.90;;;;;;5106081;28;20224;-78
2022/10/11 01:26:41;;;;;;;8.60;8.40;;;13.00;99.90;;;;;;5118992;28;20300;-78
2022/10/11 01:29:20;;;;;;;8.97;8.67;;;12.90;99.90;;;;;;5122184;28;20237;-78
2022/10/11 01:31:58;;;;;;;8.60;8.40;;;12.90;99.90;;;;;;5120821;28;20331;-78
2022/10/11 01:34:37;;;;;;;8.73;8.53;;;12.90;99.90;;;;;;5119199;28;20290;-79
2022/10/11 01:37:14;;;;;;;9.07;8.77;;;12.80;99.90;;;;;;5121103;28;20292;-78
2022/10/11 01:39:53;;;;;;;9.20;8.90;;;12.80;99.90;;;;;;5122303;28;20323;-78
2022/10/11 01:42:22;;;;;;;9.00;8.70;;;12.80;99.90;;;;;;5122504;28;20220;-79
2022/10/11 01:44:52;;;;;;;8.60;8.40;;;12.70;99.90;;;;;;5122063;28;20229;-79
2022/10/11 01:50:43;;;;;;;8.57;8.37;;;12.60;99.90;;;;;;5121399;28;20236;-79
2022/10/11 01:53:38;;;;;;;8.47;8.27;;;12.60;99.90;;;;;;5122214;28;20236;-79
2022/10/11 01:56:25;;;;;;;8.60;8.40;;;12.60;99.90;;;;;;5121697;28;20235;-80
2022/10/11 01:59:15;;;;;;;8.53;8.33;;;12.60;99.90;;;;;;5121111;28;20246;-79
2022/10/11 02:01:59;;;;;;;8.80;8.60;;;12.60;99.90;;;;;;5122356;28;20232;-79
2022/10/11 02:04:46;;;;;;;8.60;8.40;;;12.60;99.90;;;;;;5124655;28;20236;-79
2022/10/11 02:07:25;;;;;;;8.60;8.40;;;12.70;99.90;;;;;;5128856;28;20216;-77
2022/10/11 02:09:57;;;;;;;8.80;8.57;;;12.70;99.90;;;;;;5139648;28;20232;-78
2022/10/11 02:12:32;;;;;;;8.63;8.43;;;12.80;99.90;;;;;;5132746;28;20248;-78
2022/10/11 02:15:11;;;;;;;8.70;8.50;;;12.80;99.90;;;;;;5123103;28;20228;-77
2022/10/11 02:17:49;;;;;;;8.90;8.60;;;12.80;99.90;;;;;;5122748;28;20260;-79
2022/10/11 02:20:27;;;;;;;8.93;8.63;;;12.80;99.90;;;;;;5122082;28;20240;-78
2022/10/11 02:23:07;;;;;;;8.90;8.60;;;12.80;99.90;;;;;;5121986;28;20324;-79
2022/10/11 02:25:36;;;;;;;8.70;8.50;;;12.80;99.90;;;;;;5121393;28;20277;-78
2022/10/11 02:28:14;;;;;;;9.00;8.70;;;12.80;99.90;;;;;;5121825;28;20224;-79
2022/10/11 02:30:44;;;;;;;8.40;8.20;;;12.80;99.90;;;;;;5121556;28;20296;-78
2022/10/11 02:33:21;;;;;;;8.60;8.40;;;12.70;99.90;;;;;;5121709;28;20264;-78
2022/10/11 02:36:01;;;;;;;8.60;8.40;;;12.80;99.90;;;;;;5121412;28;20225;-79
2022/10/11 02:38:38;;;;;;;8.27;8.07;;;12.80;99.90;;;;;;5122184;28;20220;-78
2022/10/11 02:41:17;;;;;;;8.27;8.07;;;12.90;99.90;;;;;;5122781;28;20236;-79
2022/10/11 02:43:56;;;;;;;8.50;8.30;;;12.90;99.90;;;;;;5122259;28;20237;-79
2022/10/11 02:46:24;;;;;;;8.70;8.50;;;13.00;99.90;;;;;;5121541;28;20288;-79
2022/10/11 02:48:52;;;;;;;8.60;8.40;;;13.00;99.90;;;;;;5120634;28;20288;-79
2022/10/11 02:51:32;;;;;;;8.50;8.30;;;13.00;99.90;;;;;;5122227;28;20233;-79
2022/10/11 02:54:00;;;;;;;8.57;8.37;;;13.00;99.90;;;;;;5122445;28;20283;-78
2022/10/11 02:56:32;;;;;;;8.83;8.63;;;13.00;99.90;;;;;;5121466;28;20268;-79
2022/10/11 02:59:01;;;;;;;8.90;8.70;;;13.00;99.90;;;;;;5122076;28;20272;-79
2022/10/11 03:01:30;;;;;;;8.70;8.50;;;13.00;99.90;;;;;;5121988;28;20243;-79
2022/10/11 03:04:00;;;;;;;9.10;8.80;;;13.10;99.90;;;;;;5121997;28;20240;-79
2022/10/11 03:06:32;;;;;;;8.97;8.67;;;13.10;99.90;;;;;;5112544;28;20241;-79
2022/10/11 03:08:59;;;;;;;8.63;8.43;;;13.10;99.90;;;;;;5112835;28;20303;-78
2022/10/11 03:11:28;;;;;;;8.70;8.50;;;13.10;99.90;;;;;;5101806;28;20288;-78
2022/10/11 03:13:57;;;;;;;8.60;8.40;;;13.00;99.90;;;;;;5100703;28;20312;-78
2022/10/11 03:16:27;;;;;;;8.57;8.37;;;13.00;99.90;;;;;;5100589;28;20332;-78
2022/10/11 03:18:56;;;;;;;8.50;8.30;;;13.00;99.90;;;;;;5100716;28;20229;-78
2022/10/11 03:21:26;;;;;;;8.37;8.17;;;13.00;99.90;;;;;;5101196;28;20295;-79
2022/10/11 03:24:04;;;;;;;8.27;8.07;;;13.00;99.90;;;;;;5114845;28;20229;-78
2022/10/11 03:26:33;;;;;;;8.13;7.93;;;12.80;99.90;;;;;;5079618;28;20291;-79
2022/10/11 03:29:03;;;;;;;7.70;7.50;;;12.70;99.90;;;;;;5080896;28;20238;-78
2022/10/11 03:31:32;;;;;;;8.33;8.13;;;12.70;99.90;;;;;;5080758;28;20229;-78
2022/10/11 03:34:02;;;;;;;8.30;8.10;;;12.80;99.90;;;;;;5080289;28;20240;-79
2022/10/11 03:36:31;;;;;;;8.37;8.17;;;12.80;99.90;;;;;;5081356;28;20852;-77
2022/10/11 03:39:04;;;;;;;8.10;7.90;;;12.90;99.90;;;;;;5082413;28;20226;-79
2022/10/11 03:41:39;;;;;;;7.63;7.43;;;12.90;99.90;;;;;;5081280;28;20237;-78
2022/10/11 03:44:08;;;;;;;7.77;7.57;;;12.90;99.90;;;;;;5080923;28;20287;-79
2022/10/11 03:46:38;;;;;;;8.10;7.90;;;13.00;99.90;;;;;;5081673;28;20605;-78
2022/10/11 03:49:08;;;;;;;8.17;7.97;;;13.00;99.90;;;;;;5090703;28;20269;-77
2022/10/11 03:51:36;;;;;;;8.20;8.00;;;13.00;99.90;;;;;;5098572;28;20225;-78
2022/10/11 03:54:15;;;;;;;8.10;7.90;;;13.00;99.90;;;;;;5091740;28;20320;-79
2022/10/11 03:56:44;;;;;;;7.70;7.50;;;13.00;99.90;;;;;;5081054;28;20725;-79
2022/10/11 03:59:13;;;;;;;8.40;8.20;;;13.00;99.90;;;;;;5079842;28;20248;-79
2022/10/11 04:01:43;;;;;;;8.40;8.20;;;13.10;99.90;;;;;;5080906;28;20241;-79
2022/10/11 04:04:12;;;;;;;8.50;8.30;;;13.10;99.90;;;;;;5079666;28;20234;-78
2022/10/11 04:06:42;;;;;;;8.30;8.10;;;13.10;99.90;;;;;;5079176;28;20237;-79
2022/10/11 04:09:23;;;;;;;8.60;8.40;;;13.10;99.90;;;;;;5079809;28;20227;-78
2022/10/11 04:11:51;;;;;;;8.57;8.37;;;13.10;99.90;;;;;;5079677;28;20321;-79
2022/10/11 04:14:19;;;;;;;8.60;8.40;;;13.10;99.90;;;;;;5079750;28;20248;-79
2022/10/11 04:16:48;;;;;;;8.47;8.27;;;13.10;99.90;;;;;;5080142;28;20236;-78
2022/10/11 04:19:18;;;;;;;8.50;8.30;;;13.10;99.90;;;;;;5079459;28;20234;-78
2022/10/11 04:21:47;;;;;;;8.63;8.43;;;13.20;99.90;;;;;;5079677;28;20234;-78
2022/10/11 04:24:26;;;;;;;8.50;8.30;;;13.20;99.90;;;;;;5079384;28;20283;-78
2022/10/11 04:26:55;;;;;;;8.60;8.40;;;13.20;99.90;;;;;;5079324;28;20312;-77
2022/10/11 04:29:24;;;;;;;8.50;8.30;;;13.20;99.90;;;;;;5079274;28;20272;-77
2022/10/11 04:31:54;;;;;;;8.70;8.50;;;13.20;99.90;;;;;;5079276;28;20233;-77
2022/10/11 04:34:24;;;;;;;8.60;8.40;;;13.30;99.90;;;;;;5078789;28;20226;-77
2022/10/11 04:36:53;;;;;;;8.50;8.30;;;13.30;99.90;;;;;;5079539;28;20240;-77
2022/10/11 04:39:26;;;;;;;8.60;8.40;;;13.30;99.90;;;;;;5078937;28;20226;-78
2022/10/11 04:41:53;;;;;;;8.80;8.60;;;13.30;99.90;;;;;;5079645;28;20226;-78
2022/10/11 04:44:21;;;;;;;8.50;8.30;;;13.30;99.90;;;;;;5078955;28;20234;-78
2022/10/11 04:46:51;;;;;;;8.50;8.30;;;13.30;99.90;;;;;;5079226;28;20688;-78
2022/10/11 04:49:20;;;;;;;8.33;8.13;;;13.30;99.90;;;;;;5078962;28;20309;-78
2022/10/11 04:51:50;;;;;;;8.60;8.40;;;13.30;99.90;;;;;;5078844;28;20240;-79
2022/10/11 04:54:19;;;;;;;8.50;8.30;;;13.30;99.90;;;;;;5079489;28;20230;-79
2022/10/11 04:59:44;;;;;;;8.10;7.90;;;13.30;99.90;;;;;;5122556;22;20224;-79
2022/10/11 05:02:11;;;;;;;8.70;8.50;;;13.30;99.90;;;;;;5155826;27;20238;-79
2022/10/11 05:04:40;;;;;;;8.80;8.60;;;13.30;99.90;;;;;;5157786;27;20289;-79
2022/10/11 05:07:08;;;;;;;8.77;8.57;;;13.30;99.90;;;;;;5160900;27;20208;-80
2022/10/11 05:09:35;;;;;;;8.23;8.03;;;13.30;99.90;;;;;;5180198;27;20283;-80
2022/10/11 05:12:06;;;;;;;8.10;7.90;;;13.20;99.90;;;;;;5170134;27;20279;-79
2022/10/11 05:14:34;;;;;;;8.63;8.43;;;13.00;99.90;;;;;;5150398;27;20308;-79
2022/10/11 05:17:02;;;;;;;8.63;8.43;;;13.00;99.90;;;;;;5142421;27;20233;-78
2022/10/11 05:19:31;;;;;;;9.00;8.70;;;13.00;99.90;;;;;;5138898;27;20327;-79
2022/10/11 05:21:58;;;;;;;9.70;9.40;;;13.00;99.90;;;;;;5152933;27;20239;-79
2022/10/11 05:24:26;;;;;;;9.37;9.07;;;13.00;99.90;;;;;;5158324;27;20259;-80
2022/10/11 05:26:53;;;;;;;9.50;9.20;;;12.90;99.90;;;;;;5175239;27;20305;-78
2022/10/11 05:29:22;;;;;;;9.40;9.10;;;12.90;99.90;;;;;;5165958;27;20375;-81
2022/10/11 05:31:50;;;;;;;9.37;9.07;;;12.90;99.90;;;;;;5183691;27;20231;-79
2022/10/11 05:34:18;;;;;;;9.60;9.30;;;12.90;99.90;;;;;;5182871;27;20312;-80
2022/10/11 05:36:45;;;;;;;9.40;9.10;;;12.90;99.90;;;;;;5182190;27;20279;-79
2022/10/11 05:39:13;;;;;;;9.57;9.27;;;12.90;99.90;;;;;;5175302;27;20219;-79
2022/10/11 05:41:40;;;;;;;9.30;9.00;;;12.80;99.90;;;;;;5182219;27;20287;-79
2022/10/11 05:44:08;;;;;;;9.63;9.33;;;12.80;99.90;;;;;;5174399;27;20426;-77
2022/10/11 05:46:37;;;;;;;9.40;9.10;;;12.80;99.90;;;;;;5177156;27;20291;-77
2022/10/11 05:49:05;;;;;;;9.20;8.90;;;12.70;99.90;;;;;;5161947;27;20275;-78
2022/10/11 05:51:32;;;;;;;9.00;8.70;;;12.70;99.90;;;;;;5143458;27;20224;-78
2022/10/11 05:54:00;;;;;;;8.97;8.73;;;12.60;99.90;;;;;;5140371;27;20742;-79
2022/10/11 05:56:27;;;;;;;9.40;9.10;;;12.50;99.90;;;;;;5141916;27;20244;-78
2022/10/11 05:58:56;;;;;;;9.20;8.90;;;12.50;99.90;;;;;;5142404;27;20230;-80
2022/10/11 06:01:26;;;;;;;9.43;9.13;;;12.60;99.90;;;;;;5141433;27;20231;-78
2022/10/11 06:03:56;;;;;;;9.53;9.23;;;12.60;99.90;;;;;;5142722;27;20228;-79
2022/10/11 06:06:24;;;;;;;9.30;9.00;;;12.70;99.90;;;;;;5142294;27;20258;-79
2022/10/11 06:08:51;;;;;;;9.30;9.00;;;12.70;99.90;;;;;;5142554;27;20224;-79
2022/10/11 06:11:22;;;;;;;9.60;9.30;;;12.70;99.90;;;;;;5142117;27;20228;-78
2022/10/11 06:13:51;;;;;;;9.63;9.33;;;12.60;99.90;;;;;;5140775;27;20232;-81
2022/10/11 06:16:18;;;;;;;9.53;9.23;;;12.60;99.90;;;;;;5136020;27;20219;-79
2022/10/11 06:18:48;;;;;;;9.33;9.03;;;12.60;99.90;;;;;;5162213;27;20223;-79
2022/10/11 06:21:17;;;;;;;9.57;9.27;;;12.60;99.90;;;;;;5161884;27;20231;-78
2022/10/11 06:23:50;;;;;;;9.30;9.00;;;12.50;99.90;;;;;;5160673;27;20687;-80
2022/10/11 06:26:18;;;;;;;9.20;8.90;;;12.50;99.90;;;;;;5141175;27;20358;-80
2022/10/11 06:28:47;;;;;;;9.50;9.20;;;12.60;99.90;;;;;;5134150;27;20315;-79
2022/10/11 06:31:14;;;;;;;9.57;9.27;;;12.60;99.90;;;;;;5139528;27;20238;-79
2022/10/11 06:33:42;;;;;;;9.60;9.30;;;12.60;99.90;;;;;;5151666;27;20227;-80
2022/10/11 06:36:13;;;;;;;9.70;9.40;;;12.70;99.90;;;;;;5162433;27;20239;-79
2022/10/11 06:38:43;;;;;;;9.40;9.10;;;12.80;99.90;;;;;;5162956;27;20234;-79
2022/10/11 06:41:12;;;;;;;9.37;9.07;;;12.90;99.90;;;;;;5162271;27;20239;-80
2022/10/11 06:43:40;;;;;;;9.30;9.00;;;13.00;99.90;;;;;;5163303;27;20295;-78
2022/10/11 06:46:08;;;;;;;9.27;8.97;;;13.00;99.90;;;;;;5163224;27;20245;-79
2022/10/11 06:48:39;;;;;;;9.40;9.10;;;13.00;99.90;;;;;;5162398;27;20223;-80
2022/10/11 06:51:07;;;;;;;9.37;9.07;;;13.10;99.90;;;;;;5162702;27;20321;-79
2022/10/11 06:53:35;;;;;;;9.50;9.20;;;13.10;99.90;;;;;;5162346;27;20326;-80
2022/10/11 06:56:07;;;;;;;9.40;9.10;;;13.20;99.90;;;;;;5162029;27;20330;-80
2022/10/11 06:58:35;;;;;;;9.20;8.90;;;13.20;99.90;;;;;;5163298;27;20224;-80
2022/10/11 07:01:05;;;;;;;9.17;8.87;;;13.20;99.90;;;;;;5162470;27;20262;-79
2022/10/11 07:03:33;;;;;;;8.67;8.47;;;13.30;99.90;;;;;;5162674;27;20326;-80
2022/10/11 07:06:02;;;;;;;9.00;8.70;;;13.30;99.90;;;;;;5162178;27;20711;-80
2022/10/11 07:08:29;;;;;;;9.40;9.10;;;13.30;99.90;;;;;;5162403;27;20228;-79
2022/10/11 07:11:01;;;;;;;9.50;9.20;;;13.40;99.90;;;;;;5162504;27;20235;-79
2022/10/11 07:13:30;;;;;;;9.40;9.10;;;13.40;99.90;;;;;;5162449;27;20243;-81
2022/10/11 07:16:01;;;;;;;9.10;8.80;;;13.40;99.90;;;;;;5161666;27;20235;-79
2022/10/11 07:18:28;;;;;;;9.20;8.90;;;13.40;99.90;;;;;;5161575;27;20216;-80
2022/10/11 07:20:56;;;;;;;8.60;8.40;;;13.40;99.90;;;;;;5161478;27;20241;-80
2022/10/11 07:23:24;;;;;;;8.73;8.53;;;13.40;99.90;;;;;;5161257;27;20234;-79
2022/10/11 07:25:53;;;;;;;9.10;8.80;;;13.30;99.90;;;;;;5161008;27;20318;-78
2022/10/11 07:28:21;;;;;;;9.17;8.87;;;13.20;99.90;;;;;;5161391;27;20226;-80
2022/10/11 07:30:50;;;;;;;9.10;8.80;;;13.30;99.90;;;;;;5161955;27;20235;-79
2022/10/11 07:33:18;;;;;;;9.40;9.10;;;13.30;99.90;;;;;;5180206;27;20233;-78
2022/10/11 07:35:46;;;;;;;9.10;8.80;;;13.20;99.90;;;;;;5167279;27;20710;-79
2022/10/11 07:38:13;;;;;;;9.03;8.73;;;13.20;99.90;;;;;;5169317;27;20218;-79
2022/10/11 07:40:43;;;;;;;9.23;8.93;;;13.20;99.90;;;;;;5179439;27;20215;-79
2022/10/11 07:43:11;;;;;;;10.10;9.80;;;13.20;99.90;;;;;;5181735;27;20254;-79
2022/10/11 07:45:39;;;;;;;9.70;9.40;;;13.30;99.90;;;;;;5170704;27;20227;-79
2022/10/11 07:48:09;;;;;;;9.60;9.30;;;13.40;99.90;;;;;;5180747;27;20215;-80
2022/10/11 07:50:37;;;;;;;9.37;9.07;;;13.50;99.90;;;;;;5180660;27;20235;-79
2022/10/11 07:53:04;;;;;;;9.50;9.20;;;13.50;99.90;;;;;;5183433;27;20209;-80
2022/10/11 07:55:38;;;;;;;9.40;9.10;;;13.60;99.90;;;;;;5182412;27;20238;-81
2022/10/11 07:58:07;;;;;;;9.20;8.90;;;13.50;99.90;;;;;;5183259;27;20225;-80
2022/10/11 08:00:35;;;;;;;9.33;9.03;;;13.60;99.90;;;;;;5182387;27;20236;-80
2022/10/11 08:03:04;;;;;;;8.80;8.60;;;13.60;99.90;;;;;;5182985;27;20254;-81
2022/10/11 08:05:35;;;;;;;9.10;8.80;;;13.60;99.90;;;;;;5177624;27;20323;-80
2022/10/11 08:08:02;;;;;;;8.90;8.70;;;13.60;99.90;;;;;;5170779;27;20224;-79
2022/10/11 08:10:30;;;;;;;9.10;8.80;;;13.60;99.90;;;;;;5170400;27;20322;-79
2022/10/11 08:12:57;;;;;;;8.70;8.50;;;13.60;99.90;;;;;;5163411;27;20227;-80
2022/10/11 08:15:25;;;;;;;9.10;8.80;;;13.70;99.90;;;;;;5161036;27;20288;-78
2022/10/11 08:17:53;;;;;;;9.17;8.87;;;13.90;99.90;;;;;;5161048;27;20224;-79
2022/10/11 08:20:20;;;;;;;8.80;8.60;;;13.90;99.90;;;;;;5160701;27;20233;-80
2022/10/11 08:22:49;;;;;;;8.73;8.53;;;14.00;99.90;;;;;;5161428;27;20247;-79
2022/10/11 08:25:17;;;;;;;8.80;8.60;;;14.00;99.90;;;;;;5160215;27;20231;-79
2022/10/11 08:27:45;;;;;;;8.70;8.50;;;13.90;99.90;;;;;;5160940;27;20254;-79
2022/10/11 08:30:13;;;;;;;8.90;8.70;;;14.00;99.90;;;;;;5160835;27;20325;-81
2022/10/11 08:32:41;;;;;;;8.90;8.63;;;14.10;99.90;;;;;;5153632;27;20260;-79
2022/10/11 08:35:09;;;;;;;8.57;8.38;;;14.20;99.90;;;;;;5120246;27;20229;-80
2022/10/11 08:37:37;;;;;;;8.50;8.30;;;14.20;99.90;;;;;;5118846;27;20233;-80
2022/10/11 08:40:08;;;;;;;8.37;8.17;;;14.40;99.90;;;;;;5121151;28;20239;-79
2022/10/11 08:42:41;;;;;;;8.50;8.30;;;14.50;99.90;;;;;;5123406;28;20696;-80
2022/10/11 08:45:21;;;;;;;8.33;8.13;;;14.50;99.90;;;;;;5122738;27;20232;-79
2022/10/11 08:47:49;;;;;;;8.60;8.40;;;14.70;99.90;;;;;;5122021;28;20227;-80
2022/10/11 08:50:21;;;;;;;8.65;8.45;;;14.70;99.90;;;;;;5122412;28;20228;-80
2022/10/11 08:52:54;;;;;;;8.55;8.35;;;14.70;99.90;;;;;;5124799;27;20262;-80
2022/10/11 08:55:29;;;;;;;8.60;8.40;;;14.80;99.90;;;;;;5123096;28;20296;-80
2022/10/11 08:58:23;;;;;;;8.40;8.20;;;14.90;99.90;;;;;;5122185;28;20270;-79
2022/10/11 09:01:20;;;;;;;8.30;8.10;;;15.00;99.90;;;;;;5122193;27;20240;-79
2022/10/11 09:03:49;;;;;;;8.30;8.10;;;15.20;99.90;;;;;;5122665;28;20292;-80
2022/10/11 09:06:31;;;;;;;8.65;8.45;;;15.50;99.90;;;;;;5122344;28;20216;-81
2022/10/11 09:09:26;;;;;;;8.40;8.20;;;15.80;99.90;;;;;;5123247;27;20287;-80
2022/10/11 09:12:16;;;;;;;8.25;8.05;;;16.10;99.90;;;;;;5123357;28;20217;-79
2022/10/11 09:15:10;;;;;;;8.00;7.80;;;16.20;99.90;;;;;;5123508;28;20232;-81
2022/10/11 09:18:05;;;;;;;8.52;8.32;;;16.30;99.90;;;;;;5123142;28;20240;-81
2022/10/11 09:21:07;;;;;;;8.18;7.97;;;16.40;99.90;;;;;;5122569;28;20233;-81
2022/10/11 09:23:56;;;;;;;8.32;8.13;;;16.50;99.90;;;;;;5126839;27;20239;-79
2022/10/11 09:26:28;;;;;;;8.30;8.10;;;16.50;99.90;;;;;;5141452;27;20271;-80
2022/10/11 09:29:08;;;;;;;8.82;8.63;;;16.70;99.90;;;;;;5135302;27;20235;-80
2022/10/11 09:31:35;;;;;;;8.80;8.60;;;16.70;99.90;;;;;;5143735;27;20220;-78
2022/10/11 09:34:11;;;;;;;8.93;8.70;;;16.80;99.90;;;;;;5138754;27;20240;-78
2022/10/11 09:36:47;;;;;;;9.40;9.10;;;16.80;99.90;;;;;;5134384;27;20246;-78
2022/10/11 09:39:27;;;;;;;8.88;8.68;;;17.00;99.90;;;;;;5140362;27;20231;-78
2022/10/11 09:42:00;;;;;;;9.15;8.88;;;17.20;99.90;;;;;;5122189;28;20243;-79
2022/10/11 09:44:34;;;;;;;8.80;8.60;;;17.30;99.90;;;;;;5124530;27;20278;-78
2022/10/11 09:47:02;;;;;;;8.90;8.70;;;17.10;99.90;;;;;;5132624;27;20260;-78
2022/10/11 09:49:38;;;;;;;8.90;8.70;;;17.10;99.90;;;;;;5118716;28;20232;-79
2022/10/11 09:52:14;;;;;;;9.10;8.82;;;17.10;99.90;;;;;;5123195;27;20228;-79
2022/10/11 09:54:45;;;;;;;9.35;9.05;;;17.30;99.90;;;;;;5132676;27;20232;-79
2022/10/11 09:57:24;;;;;;;9.30;9.00;;;17.40;99.90;;;;;;5120310;27;20248;-79
2022/10/11 10:00:04;;;;;;;9.00;8.80;;;17.50;99.90;;;;;;5119760;28;20242;-79
2022/10/11 10:02:39;;;;;;;9.30;9.00;;;17.30;99.90;;;;;;5121504;28;20304;-79
2022/10/11 10:05:19;;;;;;;9.20;8.90;;;17.20;99.90;;;;;;5119852;28;20234;-79
2022/10/11 10:08:23;;;;;;;9.40;9.10;;;17.20;99.90;;;;;;5120898;28;20235;-79
2022/10/11 10:11:01;;;;;;;9.35;9.05;;;17.50;99.90;;;;;;5118725;28;20244;-79
2022/10/11 10:13:41;;;;;;;9.70;9.40;;;18.10;99.90;;;;;;5121443;28;20319;-79
2022/10/11 10:16:24;;;;;;;9.40;9.10;;;18.60;99.90;;;;;;5121505;28;20267;-81
2022/10/11 10:18:55;;;;;;;9.20;8.90;;;19.10;99.90;;;;;;5122192;28;20235;-80
2022/10/11 10:21:33;;;;;;;9.15;8.85;;;19.10;99.90;;;;;;5132369;27;20295;-80
2022/10/11 10:24:06;;;;;;;9.73;9.43;;;19.30;99.90;;;;;;5143139;27;20318;-79
2022/10/11 10:26:34;;;;;;;9.90;9.60;;;19.50;99.90;;;;;;5138752;27;20791;-78
2022/10/11 10:29:17;;;;;;;8.88;8.68;;;19.40;99.90;;;;;;5138358;27;20231;-79
2022/10/11 10:31:56;;;;;;;9.07;8.88;;;19.40;99.90;;;;;;5131403;27;20242;-79
2022/10/11 10:34:30;;;;;;;8.90;8.70;;;19.00;99.90;;;;;;5136734;27;20238;-79
2022/10/11 10:37:04;;;;;;;8.70;8.50;;;19.00;99.90;;;;;;5130167;27;20236;-79
2022/10/11 10:39:42;;;;;;;8.77;8.57;;;19.00;99.90;;;;;;5129498;27;20239;-79
2022/10/11 10:42:15;;;;;;;9.13;8.82;;;18.90;99.90;;;;;;5122621;28;20224;-79
2022/10/11 10:44:43;;;;;;;9.00;8.80;;;19.00;99.90;;;;;;5135020;27;20224;-78
2022/10/11 10:47:24;;;;;;;9.43;9.13;;;18.80;99.90;;;;;;5134343;27;20236;-79
2022/10/11 10:49:59;;;;;;;9.40;9.10;;;18.90;99.90;;;;;;5140420;27;20328;-78
2022/10/11 10:52:48;;;;;;;9.43;9.13;;;18.50;99.90;;;;;;5143415;27;20367;-79
2022/10/11 10:55:25;;;;;;;9.10;8.82;;;18.40;99.90;;;;;;5142924;27;20218;-79
2022/10/11 10:58:06;;;;;;;9.20;8.90;;;18.40;99.90;;;;;;5134276;27;20242;-78
2022/10/11 11:00:42;;;;;;;9.20;8.90;;;18.40;99.90;;;;;;5144246;27;20232;-79
2022/10/11 11:03:21;;;;;;;8.90;8.70;;;18.30;99.90;;;;;;5142848;27;20230;-79
2022/10/11 11:06:00;;;;;;;9.32;9.02;;;18.20;99.90;;;;;;5142170;27;20219;-79
2022/10/11 11:08:51;;;;;;;9.40;9.10;;;17.90;99.90;;;;;;5142859;27;20230;-78
2022/10/11 11:11:35;;;;;;;9.40;9.10;;;18.00;99.90;;;;;;5134261;27;20232;-77
2022/10/11 11:14:15;;;;;;;10.40;10.10;;;18.20;99.90;;;;;;5125873;27;20319;-78
2022/10/11 11:16:50;;;;;;;10.45;10.15;;;18.70;99.90;;;;;;5117531;28;20216;-77
2022/10/11 11:19:37;;;;;;;10.35;10.05;;;19.20;99.90;;;;;;5118390;28;20228;-78
2022/10/11 11:22:14;;;;;;;10.30;10.00;;;19.60;99.90;;;;;;5120455;28;20228;-78
2022/10/11 11:24:55;;;;;;;10.60;10.30;;;20.10;99.90;;;;;;5120890;28;20328;-77
2022/10/11 11:27:44;;;;;;;10.00;9.70;;;20.50;99.90;;;;;;5118681;28;20271;-77
2022/10/11 11:30:17;;;;;;;10.02;9.73;;;20.80;99.90;;;;;;5117854;28;20331;-77
2022/10/11 11:32:57;;;;;;;10.20;9.90;;;20.90;99.90;;;;;;5120661;28;20256;-79
2022/10/11 11:35:32;;;;;;;10.13;9.82;;;20.90;99.90;;;;;;5116936;28;20251;-77
2022/10/11 11:38:09;;;;;;;10.10;9.80;;;21.10;99.90;;;;;;5117185;28;20231;-77
2022/10/11 11:40:43;;;;;;;9.82;9.52;;;20.90;99.90;;;;;;5116580;28;20306;-78
2022/10/11 11:43:22;;;;;;;10.20;9.90;;;20.70;99.90;;;;;;5116794;28;20232;-78
2022/10/11 11:45:55;;;;;;;10.00;9.70;;;20.70;99.90;;;;;;5114661;28;20229;-77
2022/10/11 11:48:25;;;;;;;10.02;9.73;;;20.60;99.90;;;;;;5115674;28;20227;-78
2022/10/11 11:51:03;;;;;;;10.63;10.32;;;20.70;99.90;;;;;;5130667;27;20297;-78
2022/10/11 11:53:50;;;;;;;10.82;10.52;;;21.00;99.90;;;;;;5124977;27;20231;-77
2022/10/11 11:56:31;;;;;;;10.90;10.60;;;21.40;99.90;;;;;;5130523;27;20374;-78
2022/10/11 11:59:09;;;;;;;10.65;10.35;;;21.80;99.90;;;;;;5136439;27;20251;-78
2022/10/11 12:01:48;;;;;;;10.30;10.00;;;22.10;99.90;;;;;;5130992;27;20710;-79
2022/10/11 12:04:23;;;;;;;10.10;9.80;;;22.50;99.90;;;;;;5139571;27;20224;-79
2022/10/11 12:07:05;;;;;;;10.20;9.90;;;23.00;99.90;;;;;;5142334;27;20234;-79
2022/10/11 12:09:35;;;;;;;10.38;10.07;;;23.50;99.90;;;;;;5143647;27;20233;-80
2022/10/11 12:12:06;;;;;;;10.10;9.80;;;23.60;99.90;;;;;;5138489;27;20299;-80
2022/10/11 12:14:40;;;;;;;10.20;9.90;;;23.30;99.90;;;;;;5134050;27;20236;-80
2022/10/11 12:17:20;;;;;;;10.40;10.10;;;23.10;99.90;;;;;;5126722;27;20233;-80
2022/10/11 12:20:14;;;;;;;9.82;9.52;;;22.60;99.90;;;;;;5120784;27;20243;-81
2022/10/11 12:23:00;;;;;;;9.80;9.50;;;22.00;99.90;;;;;;5133246;27;20251;-80
2022/10/11 12:25:46;;;;;;;9.82;9.52;;;21.40;99.90;;;;;;5118632;28;20233;-79
2022/10/11 12:29:05;;;;;;;9.73;9.43;;;20.60;99.90;;;;;;5120513;28;20288;-80
2022/10/11 12:31:35;;;;;;;9.68;9.38;;;20.40;99.90;;;;;;5126633;28;21078;-80
2022/10/11 12:34:34;;;;;;;9.73;9.43;;;20.20;99.90;;;;;;5121832;28;20235;-80
2022/10/11 12:37:50;;;;;;;9.90;9.60;;;20.10;99.90;;;;;;5121104;28;20231;-79
2022/10/11 12:40:40;;;;;;;9.50;9.20;;;19.90;99.90;;;;;;5103007;28;20241;-80
2022/10/11 12:43:25;;;;;;;9.50;9.20;;;19.90;99.90;;;;;;5121403;28;20235;-80
2022/10/11 12:45:53;;;;;;;9.40;9.10;;;19.70;99.90;;;;;;5120987;28;20228;-79
2022/10/11 12:48:45;;;;;;;9.10;8.80;;;19.20;99.90;;;;;;5121573;28;20240;-80
2022/10/11 12:51:33;;;;;;;8.45;8.25;;;18.90;99.90;;;;;;5120771;28;20278;-80
2022/10/11 12:54:28;;;;;;;8.35;8.15;;;18.70;99.90;;;;;;5121406;28;20235;-81
2022/10/11 12:57:46;;;;;;;8.70;8.50;;;18.50;99.90;;;;;;5120589;28;20300;-80
2022/10/11 13:00:22;;;;;;;8.57;8.38;;;18.30;99.90;;;;;;5119262;28;20302;-80
2022/10/11 13:02:50;;;;;;;8.90;8.70;;;18.10;99.90;;;;;;5120243;28;20232;-82
2022/10/11 13:05:23;;;;;;;9.40;9.10;;;18.00;99.90;;;;;;5119283;28;20223;-81
2022/10/11 13:07:52;;;;;;;9.43;9.13;;;18.00;99.90;;;;;;5119840;28;20228;-78
2022/10/11 13:10:27;;;;;;;9.50;9.20;;;18.00;99.90;;;;;;5120020;28;20243;-82
2022/10/11 13:13:03;;;;;;;8.88;8.68;;;17.90;99.90;;;;;;5118943;28;20243;-81
2022/10/11 13:15:31;;;;;;;9.30;9.00;;;17.80;99.90;;;;;;5118782;28;20226;-80
2022/10/11 13:18:00;;;;;;;8.98;8.75;;;17.90;99.90;;;;;;5119178;28;20240;-80
2022/10/11 13:20:34;;;;;;;8.73;8.52;;;18.10;99.90;;;;;;5119427;28;20292;-79
2022/10/11 13:23:01;;;;;;;8.45;8.25;;;18.20;99.90;;;;;;5125398;28;20220;-78
2022/10/11 13:25:38;;;;;;;8.50;8.30;;;18.10;99.90;;;;;;5135289;28;20228;-79
2022/10/11 13:28:10;;;;;;;8.77;8.57;;;17.90;99.90;;;;;;5136560;28;20255;-79